createdAt,value
2018-12-27T00:01:05.572Z,45.17
2018-12-27T00:06:10.928Z,46.30
2018-12-27T00:11:16.439Z,47.90
2018-12-27T00:16:21.892Z,43.37
2018-12-27T00:21:28.186Z,43.70
2018-12-27T00:26:33.629Z,43.60
2018-12-27T00:31:39.796Z,44.07
2018-12-27T00:36:45.132Z,50.77
2018-12-27T00:41:50.748Z,48.90
2018-12-27T00:46:55.981Z,54.77
2018-12-27T00:52:01.287Z,49.93
2018-12-27T00:57:06.851Z,46.80
2018-12-27T01:02:12.233Z,45.90
2018-12-27T01:07:17.463Z,46.63
2018-12-27T01:12:22.805Z,44.03
2018-12-27T01:17:28.175Z,48.63
2018-12-27T01:22:33.538Z,49.07
2018-12-27T01:27:44.009Z,48.13
2018-12-27T01:32:49.269Z,49.70
2018-12-27T01:37:54.630Z,43.53
2018-12-27T01:43:00.263Z,47.00
2018-12-27T01:48:05.657Z,44.27
2018-12-27T01:53:11.148Z,37.87
2018-12-27T01:58:16.430Z,39.77
2018-12-27T02:03:26.414Z,40.33
2018-12-27T02:08:29.192Z,44.33
2018-12-27T02:13:34.724Z,50.07
2018-12-27T02:18:41.880Z,45.43
2018-12-27T02:23:48.952Z,46.77
2018-12-27T02:28:56.230Z,43.70
2018-12-27T02:34:01.715Z,48.63
2018-12-27T02:44:45.543Z,43.33
2018-12-27T02:50:12.512Z,42.17
2018-12-27T02:55:18.464Z,42.13
2018-12-27T03:00:24.142Z,42.53
2018-12-27T03:05:32.853Z,47.40
2018-12-27T03:10:40.589Z,49.00
2018-12-27T03:15:47.053Z,46.33
2018-12-27T03:20:52.811Z,48.57
2018-12-27T03:25:58.089Z,51.70
2018-12-27T03:31:03.357Z,43.87
2018-12-27T03:36:08.886Z,50.70
2018-12-27T03:41:14.249Z,48.57
2018-12-27T03:46:19.438Z,46.83
2018-12-27T03:51:24.688Z,48.10
2018-12-27T03:56:29.914Z,46.70
2018-12-27T04:01:38.155Z,43.17
2018-12-27T04:06:43.765Z,37.93
2018-12-27T04:11:49.040Z,40.57
2018-12-27T04:16:56.852Z,50.70
2018-12-27T04:22:04.734Z,50.13
2018-12-27T04:27:12.469Z,41.77
2018-12-27T04:32:18.807Z,45.93
2018-12-27T04:37:23.854Z,45.10
2018-12-27T04:42:29.004Z,52.23
2018-12-27T04:47:39.148Z,41.23
2018-12-27T04:52:44.698Z,37.83
2018-12-27T04:57:49.729Z,38.20
2018-12-27T05:02:54.811Z,38.37
2018-12-27T05:08:00.587Z,43.63
2018-12-27T05:13:05.993Z,43.17
2018-12-27T05:18:12.264Z,41.63
2018-12-27T05:23:17.339Z,43.33
2018-12-27T05:28:22.438Z,47.23
2018-12-27T05:33:27.819Z,46.43
2018-12-27T05:38:38.020Z,45.20
2018-12-27T05:43:44.404Z,47.70
2018-12-27T05:48:49.452Z,50.53
2018-12-27T05:53:54.653Z,52.23
2018-12-27T05:59:04.907Z,56.93
2018-12-27T06:04:10.376Z,48.87
2018-12-27T06:09:15.549Z,48.90
2018-12-27T06:14:20.535Z,49.57
2018-12-27T06:25:09.139Z,49.63
2018-12-27T06:30:14.118Z,47.30
2018-12-27T06:35:19.470Z,47.40
2018-12-27T06:40:25.182Z,52.30
2018-12-27T06:45:30.818Z,42.40
2018-12-27T06:50:36.193Z,43.60
2018-12-27T06:55:43.581Z,45.33
2018-12-27T07:00:48.754Z,41.43
2018-12-27T07:05:53.815Z,41.83
2018-12-27T07:11:00.027Z,46.50
2018-12-27T07:16:05.275Z,46.63
2018-12-27T07:21:10.811Z,54.40
2018-12-27T07:26:15.939Z,49.00
2018-12-27T07:31:21.359Z,44.27
2018-12-27T07:36:26.328Z,47.43
2018-12-27T07:41:35.983Z,40.27
2018-12-27T07:46:41.046Z,44.93
2018-12-27T07:51:47.953Z,45.67
2018-12-27T07:56:53.175Z,45.23
2018-12-27T08:01:58.997Z,46.30
2018-12-27T08:07:04.595Z,44.23
2018-12-27T08:12:09.860Z,42.67
2018-12-27T08:17:17.621Z,42.13
2018-12-27T08:22:22.974Z,43.20
2018-12-27T08:27:28.161Z,42.93
2018-12-27T08:32:35.118Z,40.47
2018-12-27T08:37:40.280Z,47.13
2018-12-27T08:42:45.338Z,39.77
2018-12-27T08:47:52.089Z,42.17
2018-12-27T08:52:57.444Z,41.90
2018-12-27T08:58:02.946Z,40.57
2018-12-27T09:03:08.420Z,38.37
2018-12-27T09:08:14.656Z,40.93
2018-12-27T09:13:19.950Z,37.53
2018-12-27T09:18:25.402Z,33.73
2018-12-27T09:23:32.394Z,43.07
2018-12-27T09:28:38.356Z,43.13
2018-12-27T09:33:43.473Z,41.47
2018-12-27T09:38:48.897Z,39.03
2018-12-27T09:43:54.367Z,34.73
2018-12-27T09:48:59.441Z,34.13
2018-12-27T09:54:04.707Z,34.23
2018-12-27T09:59:10.324Z,26.23
2018-12-27T10:04:15.988Z,26.03
2018-12-27T10:09:39.296Z,26.77
2018-12-27T10:14:44.678Z,29.13
2018-12-27T10:19:49.869Z,30.13
2018-12-27T10:24:55.334Z,30.00
2018-12-27T10:30:24.282Z,29.63
2018-12-27T10:35:30.068Z,28.23
2018-12-27T10:40:35.534Z,28.00
2018-12-27T10:45:40.889Z,36.00
2018-12-27T10:50:47.179Z,28.43
2018-12-27T10:55:53.975Z,28.37
2018-12-27T11:00:59.176Z,28.53
2018-12-27T11:06:04.444Z,28.83
2018-12-27T11:11:09.599Z,25.87
2018-12-27T11:16:19.953Z,21.40
2018-12-27T11:21:25.084Z,21.40
2018-12-27T11:26:32.724Z,23.63
2018-12-27T11:31:37.850Z,24.27
2018-12-27T11:36:43.460Z,25.30
2018-12-27T11:41:49.460Z,23.40
2018-12-27T11:46:54.700Z,23.53
2018-12-27T11:51:59.929Z,24.67
2018-12-27T11:57:05.051Z,24.17
2018-12-27T12:02:10.316Z,27.40
2018-12-27T12:07:16.470Z,21.67
2018-12-27T12:12:21.646Z,20.20
2018-12-27T12:17:28.318Z,19.67
2018-12-27T12:22:33.947Z,27.43
2018-12-27T12:27:39.125Z,24.63
2018-12-27T12:32:44.228Z,20.47
2018-12-27T12:37:51.354Z,23.40
2018-12-27T12:42:56.458Z,21.00
2018-12-27T12:48:01.974Z,22.67
2018-12-27T12:53:07.042Z,23.43
2018-12-27T12:58:12.546Z,22.77
2018-12-27T13:03:17.770Z,22.40
2018-12-27T13:08:24.084Z,23.57
2018-12-27T13:13:29.392Z,24.20
2018-12-27T13:18:34.530Z,22.17
2018-12-27T13:23:39.621Z,20.40
2018-12-27T13:28:47.988Z,19.97
2018-12-27T13:33:54.131Z,25.73
2018-12-27T13:39:21.182Z,23.33
2018-12-27T13:44:26.616Z,21.17
2018-12-27T13:49:32.569Z,21.90
2018-12-27T13:54:42.857Z,24.50
2018-12-27T13:59:49.121Z,21.20
2018-12-27T14:04:55.520Z,21.23
2018-12-27T14:10:03.495Z,21.87
2018-12-27T14:15:09.197Z,21.37
2018-12-27T14:20:14.404Z,23.53
2018-12-27T14:25:20.000Z,28.77
2018-12-27T14:30:25.593Z,25.73
2018-12-27T14:35:31.078Z,25.37
2018-12-27T14:40:36.360Z,29.93
2018-12-27T14:45:43.144Z,28.63
2018-12-27T14:50:48.863Z,27.03
2018-12-27T14:55:56.890Z,28.53
2018-12-27T15:01:02.526Z,31.67
2018-12-27T15:06:09.392Z,31.97
2018-12-27T15:11:16.460Z,28.77
2018-12-27T15:16:24.073Z,32.10
2018-12-27T15:21:29.840Z,33.37
2018-12-27T15:26:35.952Z,33.60
2018-12-27T15:31:41.111Z,33.17
2018-12-27T15:36:46.698Z,31.93
2018-12-27T15:41:51.830Z,33.97
2018-12-27T15:46:56.978Z,33.33
2018-12-27T15:52:02.182Z,33.90
2018-12-27T15:57:12.414Z,33.33
2018-12-27T16:02:17.492Z,32.80
2018-12-27T16:07:22.901Z,32.57
2018-12-27T16:12:28.146Z,28.13
2018-12-27T16:17:34.055Z,31.53
2018-12-27T16:22:39.351Z,33.80
2018-12-27T16:27:47.843Z,37.27
2018-12-27T16:32:54.113Z,32.07
2018-12-27T16:37:59.780Z,36.57
2018-12-27T16:43:05.316Z,35.23
2018-12-27T16:48:27.401Z,40.57
2018-12-27T16:53:35.830Z,41.30
2018-12-27T16:58:47.493Z,39.17
2018-12-27T17:03:52.715Z,41.70
2018-12-27T17:09:05.401Z,39.17
2018-12-27T17:14:15.227Z,38.33
2018-12-27T17:19:21.313Z,37.53
2018-12-27T17:24:26.649Z,35.67
2018-12-27T17:29:32.437Z,35.33
2018-12-27T17:34:37.727Z,41.53
2018-12-27T17:39:48.069Z,33.33
2018-12-27T17:44:54.322Z,35.07
2018-12-27T17:50:05.276Z,34.53
2018-12-27T17:55:11.711Z,35.80
2018-12-27T18:00:18.313Z,34.30
2018-12-27T18:05:23.799Z,38.40
2018-12-27T18:10:31.407Z,35.00
2018-12-27T18:15:37.057Z,40.70
2018-12-27T18:20:42.229Z,43.37
2018-12-27T18:25:47.379Z,39.17
2018-12-27T18:30:53.813Z,41.03
2018-12-27T18:36:02.215Z,41.87
2018-12-27T18:41:10.367Z,38.97
2018-12-27T18:46:18.485Z,36.73
2018-12-27T18:51:23.879Z,42.67
2018-12-27T18:56:29.317Z,40.23
2018-12-27T19:01:36.868Z,42.67
2018-12-27T19:06:45.605Z,43.30
2018-12-27T19:12:26.699Z,40.13
2018-12-27T19:17:52.421Z,37.13
2018-12-27T19:23:23.623Z,39.50
2018-12-27T19:45:30.397Z,32.63
2018-12-27T19:50:39.850Z,35.63
2018-12-27T19:55:47.279Z,41.73
2018-12-27T20:00:55.249Z,46.43
2018-12-27T20:06:04.879Z,43.80
2018-12-27T20:11:13.164Z,41.53
2018-12-27T20:16:23.928Z,40.27
2018-12-27T20:21:55.651Z,34.50
2018-12-27T20:27:03.977Z,36.07
2018-12-27T20:32:17.137Z,36.43
2018-12-27T20:37:33.263Z,41.40
2018-12-27T20:42:42.268Z,43.00
2018-12-27T20:47:59.825Z,40.87
2018-12-27T20:53:06.515Z,39.43
2018-12-27T20:58:11.942Z,41.17
2018-12-27T21:03:19.706Z,41.70
2018-12-27T21:08:32.166Z,42.23
2018-12-27T21:13:37.775Z,48.07
2018-12-27T21:18:44.872Z,44.90
2018-12-27T21:23:55.335Z,44.40
2018-12-27T21:29:06.026Z,43.27
2018-12-27T21:34:15.408Z,41.03
2018-12-27T21:39:23.226Z,40.13
2018-12-27T21:44:30.480Z,40.97
2018-12-27T21:49:42.049Z,39.63
2018-12-27T21:54:56.251Z,39.93
2018-12-27T22:00:05.045Z,40.07
2018-12-27T22:05:13.332Z,39.47
2018-12-27T22:10:19.827Z,43.30
2018-12-27T22:15:26.145Z,39.07
2018-12-27T22:20:34.528Z,37.57
2018-12-27T22:25:45.566Z,41.07
2018-12-27T22:30:52.600Z,41.93
2018-12-27T22:35:58.026Z,40.47
2018-12-27T22:41:03.953Z,43.20
2018-12-27T22:46:10.084Z,42.90
2018-12-27T22:51:15.472Z,41.90
2018-12-27T22:56:21.193Z,41.37
2018-12-27T23:01:26.938Z,42.80
2018-12-27T23:06:33.228Z,39.83
2018-12-27T23:11:38.972Z,39.80
2018-12-27T23:16:45.120Z,39.00
2018-12-27T23:21:52.696Z,37.50
2018-12-27T23:26:57.763Z,38.77
2018-12-27T23:32:04.143Z,40.47
2018-12-27T23:37:15.163Z,37.03
2018-12-27T23:42:20.266Z,37.60
2018-12-27T23:47:27.554Z,36.97
2018-12-27T23:52:32.684Z,37.47
2018-12-27T23:57:39.788Z,33.37
